createdAt,value
2019-04-21T00:04:40.710Z,65.00
2019-04-21T00:07:36.302Z,63.30
2019-04-21T00:10:47.928Z,64.74
2019-04-21T00:13:20.503Z,64.88
2019-04-21T00:15:48.665Z,63.15
2019-04-21T00:18:47.701Z,64.76
2019-04-21T00:21:24.418Z,64.13
2019-04-21T00:24:23.907Z,64.13
2019-04-21T00:30:26.958Z,65.49
2019-04-21T00:32:58.812Z,64.07
2019-04-21T00:35:25.552Z,62.16
2019-04-21T00:38:18.378Z,63.87
2019-04-21T00:40:56.647Z,65.02
2019-04-21T00:43:28.005Z,65.32
2019-04-21T00:45:57.568Z,66.42
2019-04-21T00:48:48.620Z,66.51
2019-04-21T00:51:33.367Z,66.90
2019-04-21T00:54:31.338Z,68.28
2019-04-21T00:56:56.231Z,63.43
2019-04-21T01:02:56.481Z,67.23
2019-04-21T01:06:11.515Z,68.65
2019-04-21T01:08:46.834Z,65.87
2019-04-21T01:11:26.310Z,66.39
2019-04-21T01:14:07.051Z,67.24
2019-04-21T01:16:39.322Z,68.07
2019-04-21T01:19:17.344Z,68.75
2019-04-21T01:21:38.669Z,68.40
2019-04-21T01:24:18.276Z,70.23
2019-04-21T01:27:06.379Z,71.39
2019-04-21T01:29:54.002Z,71.24
2019-04-21T01:32:35.903Z,70.77
2019-04-21T01:35:08.720Z,71.15
2019-04-21T01:37:52.792Z,71.42
2019-04-21T01:43:27.850Z,71.76
2019-04-21T01:46:25.660Z,71.90
2019-04-21T01:49:04.620Z,74.17
2019-04-21T01:55:00.637Z,75.84
2019-04-21T01:57:51.232Z,76.81
2019-04-21T02:00:38.963Z,76.21
2019-04-21T02:03:28.597Z,75.40
2019-04-21T02:06:13.753Z,73.95
2019-04-21T02:08:37.372Z,75.26
2019-04-21T02:11:18.847Z,76.41
2019-04-21T02:14:05.930Z,76.94
2019-04-21T02:16:34.284Z,78.38
2019-04-21T02:19:08.450Z,78.06
2019-04-21T02:21:38.259Z,77.01
2019-04-21T02:24:33.336Z,74.50
2019-04-21T02:26:59.256Z,75.65
2019-04-21T02:29:55.900Z,76.92
2019-04-21T02:32:24.737Z,75.00
2019-04-21T02:35:02.339Z,74.57
2019-04-21T02:40:14.666Z,74.10
2019-04-21T02:42:59.499Z,74.24
2019-04-21T02:45:44.877Z,75.61
2019-04-21T02:56:58.142Z,79.21
2019-04-21T03:08:15.170Z,79.54
2019-04-21T03:13:43.027Z,77.45
2019-04-21T03:19:04.891Z,79.48
2019-04-21T03:21:38.654Z,80.12
2019-04-21T03:24:24.453Z,80.38
2019-04-21T03:27:34.884Z,82.18
2019-04-21T03:30:03.498Z,81.96
2019-04-21T03:35:54.304Z,82.96
2019-04-21T03:38:05.841Z,83.11
2019-04-21T03:40:26.098Z,84.67
2019-04-21T03:43:04.921Z,84.27
2019-04-21T03:51:40.071Z,86.96
2019-04-21T03:54:00.546Z,87.39
2019-04-21T03:59:03.966Z,87.28
2019-04-21T04:02:18.567Z,84.12
2019-04-21T04:05:08.940Z,87.04
2019-04-21T04:07:59.074Z,85.30
2019-04-21T04:10:39.159Z,86.16
2019-04-21T04:13:05.017Z,86.76
2019-04-21T04:15:49.021Z,85.78
2019-04-21T04:18:39.389Z,85.84
2019-04-21T04:21:02.686Z,86.15
2019-04-21T04:23:45.154Z,85.67
2019-04-21T04:26:22.879Z,83.67
2019-04-21T04:28:54.267Z,84.16
2019-04-21T04:31:41.556Z,85.61
2019-04-21T04:37:03.466Z,84.89
2019-04-21T04:45:08.154Z,83.67
2019-04-21T04:47:51.219Z,84.07
2019-04-21T04:53:40.406Z,85.01
2019-04-21T04:56:00.070Z,84.63
2019-04-21T05:04:20.539Z,83.32
2019-04-21T05:11:55.518Z,79.44
2019-04-21T05:20:13.268Z,74.68
2019-04-21T05:22:58.284Z,75.05
2019-04-21T05:25:49.968Z,73.44
2019-04-21T05:28:11.550Z,76.22
2019-04-21T05:31:33.854Z,77.77
2019-04-21T05:34:26.868Z,76.10
2019-04-21T05:42:36.674Z,70.74
2019-04-21T05:45:50.128Z,72.86
2019-04-21T05:48:39.489Z,71.97
2019-04-21T05:51:14.684Z,70.20
2019-04-21T05:54:04.916Z,68.93
2019-04-21T05:56:33.584Z,69.23
2019-04-21T05:59:08.918Z,60.88
2019-04-21T06:02:06.107Z,62.83
2019-04-21T06:04:34.792Z,59.78
2019-04-21T06:07:58.789Z,59.20
2019-04-21T06:10:27.432Z,58.71
2019-04-21T06:12:59.897Z,60.19
2019-04-21T06:18:47.049Z,59.03
2019-04-21T06:21:25.117Z,60.66
2019-04-21T06:23:57.377Z,61.18
2019-04-21T06:29:29.781Z,60.88
2019-04-21T06:33:15.353Z,57.57
2019-04-21T06:35:04.332Z,56.74
2019-04-21T06:37:47.094Z,56.13
2019-04-21T06:40:38.646Z,55.87
2019-04-21T06:43:28.157Z,55.53
2019-04-21T06:46:08.971Z,55.16
2019-04-21T06:48:32.951Z,55.15
2019-04-21T06:51:13.711Z,54.38
2019-04-21T06:53:48.656Z,55.45
2019-04-21T06:56:23.532Z,55.51
2019-04-21T06:59:13.518Z,53.73
2019-04-21T07:02:23.423Z,54.74
2019-04-21T07:04:39.143Z,54.74
2019-04-21T07:07:25.594Z,54.70
2019-04-21T07:10:21.014Z,53.50
2019-04-21T07:12:59.019Z,54.04
2019-04-21T07:15:43.545Z,52.09
2019-04-21T07:21:30.057Z,53.18
2019-04-21T07:24:21.806Z,50.93
2019-04-21T07:26:58.723Z,50.39
2019-04-21T07:29:34.753Z,51.07
2019-04-21T07:32:09.404Z,48.81
2019-04-21T07:34:44.867Z,48.29
2019-04-21T07:37:17.424Z,49.54
2019-04-21T07:39:54.861Z,47.49
2019-04-21T07:42:36.954Z,46.61
2019-04-21T07:45:08.777Z,46.55
2019-04-21T07:48:08.229Z,46.98
2019-04-21T07:56:07.254Z,45.92
2019-04-21T07:59:18.890Z,45.46
2019-04-21T08:02:06.912Z,44.62
2019-04-21T08:04:52.681Z,44.49
2019-04-21T08:07:15.017Z,45.34
2019-04-21T08:09:46.457Z,45.62
2019-04-21T08:12:22.966Z,44.02
2019-04-21T08:15:13.971Z,45.28
2019-04-21T08:17:41.347Z,44.66
2019-04-21T08:20:18.793Z,45.21
2019-04-21T08:23:13.155Z,44.21
2019-04-21T08:25:45.920Z,45.16
2019-04-21T08:28:17.852Z,44.12
2019-04-21T08:31:01.282Z,43.51
2019-04-21T08:33:51.417Z,43.25
2019-04-21T08:38:58.289Z,43.19
2019-04-21T08:41:31.300Z,44.26
2019-04-21T08:44:18.448Z,42.94
2019-04-21T08:46:48.989Z,41.26
2019-04-21T08:49:20.616Z,41.30
2019-04-21T08:52:21.563Z,41.61
2019-04-21T08:55:20.310Z,40.54
2019-04-21T08:58:15.751Z,41.36
2019-04-21T09:01:08.763Z,42.29
2019-04-21T09:04:04.245Z,41.85
2019-04-21T09:09:45.676Z,40.75
2019-04-21T09:12:19.623Z,41.05
2019-04-21T09:14:48.810Z,41.56
2019-04-21T09:17:23.666Z,41.06
2019-04-21T09:22:41.224Z,40.41
2019-04-21T09:26:05.191Z,39.39
2019-04-21T09:28:35.537Z,39.80
2019-04-21T09:31:01.683Z,39.81
2019-04-21T09:33:45.212Z,38.89
2019-04-21T09:36:19.565Z,37.25
2019-04-21T09:39:00.060Z,38.95
2019-04-21T09:41:29.562Z,37.07
2019-04-21T09:44:09.921Z,38.51
2019-04-21T09:46:50.606Z,36.55
2019-04-21T09:49:25.353Z,35.22
2019-04-21T09:51:57.760Z,36.24
2019-04-21T09:54:37.051Z,38.25
2019-04-21T09:57:20.553Z,36.25
2019-04-21T10:00:00.083Z,36.16
2019-04-21T10:02:34.225Z,35.79
2019-04-21T10:05:02.079Z,36.52
2019-04-21T10:07:35.618Z,34.17
2019-04-21T10:10:22.945Z,32.55
2019-04-21T10:13:02.953Z,34.73
2019-04-21T10:18:48.169Z,31.88
2019-04-21T10:21:38.235Z,30.69
2019-04-21T10:24:26.970Z,29.49
2019-04-21T10:26:56.258Z,30.03
2019-04-21T10:29:29.379Z,31.06
2019-04-21T10:32:28.227Z,28.18
2019-04-21T10:34:57.582Z,29.20
2019-04-21T10:37:40.064Z,30.67
2019-04-21T10:40:43.495Z,28.91
2019-04-21T10:45:51.183Z,27.43
2019-04-21T10:48:21.012Z,27.43
2019-04-21T10:51:01.133Z,27.00
2019-04-21T10:56:41.511Z,27.70
2019-04-21T10:59:14.292Z,26.48
2019-04-21T11:01:50.454Z,25.56
2019-04-21T11:07:55.169Z,24.20
2019-04-21T11:10:20.103Z,24.19
2019-04-21T11:12:56.716Z,23.81
2019-04-21T11:15:32.790Z,24.20
2019-04-21T11:18:08.359Z,25.29
2019-04-21T11:20:37.684Z,25.31
2019-04-21T11:23:08.016Z,25.65
2019-04-21T11:25:44.013Z,26.21
2019-04-21T11:28:20.701Z,24.78
2019-04-21T11:30:57.164Z,25.64
2019-04-21T11:33:33.461Z,24.29
2019-04-21T11:36:03.589Z,25.79
2019-04-21T11:39:22.248Z,24.10
2019-04-21T11:41:48.172Z,24.73
2019-04-21T11:44:18.405Z,24.28
2019-04-21T11:46:58.371Z,24.58
2019-04-21T11:49:34.846Z,26.19
2019-04-21T11:52:11.316Z,25.93
2019-04-21T11:54:51.083Z,24.38
2019-04-21T11:57:27.517Z,24.71
2019-04-21T12:03:06.343Z,24.13
2019-04-21T12:05:37.206Z,25.61
2019-04-21T12:08:23.036Z,25.49
2019-04-21T12:10:53.523Z,25.76
2019-04-21T12:13:30.065Z,25.10
2019-04-21T12:16:05.591Z,25.29
2019-04-21T12:18:34.930Z,25.03
2019-04-21T12:21:05.278Z,25.02
2019-04-21T12:23:54.455Z,25.51
2019-04-21T12:26:24.245Z,24.34
2019-04-21T12:28:53.685Z,24.54
2019-04-21T12:34:19.500Z,24.24
2019-04-21T12:36:55.038Z,24.34
2019-04-21T12:39:25.078Z,25.39
2019-04-21T12:42:14.551Z,24.41
2019-04-21T12:44:43.927Z,25.14
2019-04-21T12:47:14.158Z,25.47
2019-04-21T12:52:31.551Z,24.35
2019-04-21T12:58:09.346Z,24.11
2019-04-21T13:00:38.878Z,24.22
2019-04-21T13:03:15.893Z,25.49
2019-04-21T13:05:51.896Z,24.04
2019-04-21T13:08:21.757Z,24.41
2019-04-21T13:11:11.560Z,24.41
2019-04-21T13:13:48.152Z,24.40
2019-04-21T13:16:25.338Z,26.00
2019-04-21T13:19:00.098Z,24.72
2019-04-21T13:21:29.910Z,25.23
2019-04-21T13:24:09.763Z,25.37
2019-04-21T13:26:45.538Z,25.94
2019-04-21T13:29:30.261Z,24.67
2019-04-21T13:32:06.854Z,25.08
2019-04-21T13:34:42.232Z,24.73
2019-04-21T13:37:11.970Z,24.40
2019-04-21T13:40:43.313Z,24.49
2019-04-21T13:45:53.965Z,24.31
2019-04-21T13:48:28.773Z,25.30
2019-04-21T13:50:59.451Z,24.09
2019-04-21T13:53:49.439Z,24.37
2019-04-21T13:56:24.866Z,23.68
2019-04-21T13:58:54.190Z,25.05
2019-04-21T14:01:23.582Z,23.59
2019-04-21T14:04:13.545Z,23.57
2019-04-21T14:07:02.530Z,23.18
2019-04-21T14:09:40.271Z,23.80
2019-04-21T14:12:23.362Z,23.70
2019-04-21T14:15:00.005Z,24.43
2019-04-21T14:17:35.073Z,24.74
2019-04-21T14:23:22.419Z,23.50
2019-04-21T14:25:48.305Z,25.26
2019-04-21T14:28:17.872Z,23.58
2019-04-21T14:30:48.270Z,23.99
2019-04-21T14:33:23.872Z,24.24
2019-04-21T14:38:56.620Z,24.67
2019-04-21T14:41:32.553Z,23.34
2019-04-21T14:44:09.082Z,22.71
2019-04-21T14:47:05.025Z,23.68
2019-04-21T14:49:53.494Z,23.65
2019-04-21T14:57:59.125Z,23.11
2019-04-21T15:01:08.424Z,24.03
2019-04-21T15:03:37.743Z,23.25
2019-04-21T15:06:19.527Z,23.20
2019-04-21T15:08:49.236Z,23.49
2019-04-21T15:11:26.262Z,22.77
2019-04-21T15:14:02.065Z,22.67
2019-04-21T15:16:38.690Z,23.83
2019-04-21T15:19:18.020Z,23.16
2019-04-21T15:22:08.084Z,23.81
2019-04-21T15:24:58.344Z,22.94
2019-04-21T15:27:36.939Z,21.67
2019-04-21T15:30:54.419Z,21.62
2019-04-21T15:33:30.633Z,22.92
2019-04-21T15:36:46.325Z,22.79
2019-04-21T15:39:21.528Z,22.03
2019-04-21T15:42:01.157Z,22.79
2019-04-21T15:44:30.585Z,22.86
2019-04-21T15:46:59.868Z,24.16
2019-04-21T15:50:12.813Z,23.15
2019-04-21T15:56:13.128Z,23.74
2019-04-21T15:59:01.537Z,23.00
2019-04-21T16:01:50.655Z,24.33
2019-04-21T16:04:39.109Z,22.92
2019-04-21T16:07:08.450Z,23.46
2019-04-21T16:09:37.780Z,23.67
2019-04-21T16:12:07.407Z,23.21
2019-04-21T16:14:58.699Z,24.02
2019-04-21T16:17:35.112Z,23.86
2019-04-21T16:23:30.815Z,24.37
2019-04-21T16:26:00.071Z,23.92
2019-04-21T16:28:29.460Z,24.81
2019-04-21T16:30:58.797Z,23.58
2019-04-21T16:33:29.293Z,23.51
2019-04-21T16:36:45.676Z,23.68
2019-04-21T16:39:21.358Z,23.97
2019-04-21T16:41:56.311Z,24.48
2019-04-21T16:44:52.682Z,25.23
2019-04-21T16:47:32.450Z,26.66
2019-04-21T16:53:50.302Z,25.31
2019-04-21T16:59:19.000Z,24.07
2019-04-21T17:01:48.910Z,24.02
2019-04-21T17:04:28.828Z,23.96
2019-04-21T17:06:58.948Z,24.00
2019-04-21T17:09:48.606Z,24.40
2019-04-21T17:12:26.312Z,25.19
2019-04-21T17:15:31.511Z,25.42
2019-04-21T17:18:04.268Z,25.60
2019-04-21T17:20:35.947Z,26.54
2019-04-21T17:22:59.656Z,26.45
2019-04-21T17:25:39.287Z,27.01
2019-04-21T17:28:15.478Z,27.81
2019-04-21T17:30:51.035Z,27.40
2019-04-21T17:33:25.658Z,26.67
2019-04-21T17:36:11.418Z,28.56
2019-04-21T17:38:48.142Z,26.95
2019-04-21T17:41:30.627Z,26.94
2019-04-21T17:44:00.367Z,27.52
2019-04-21T17:46:45.838Z,28.01
2019-04-21T17:49:13.187Z,27.88
2019-04-21T17:52:05.590Z,27.54
2019-04-21T17:57:49.481Z,28.49
2019-04-21T18:01:40.814Z,28.58
2019-04-21T18:04:14.826Z,29.25
2019-04-21T18:07:31.554Z,29.38
2019-04-21T18:13:01.385Z,29.56
2019-04-21T18:15:55.801Z,30.06
2019-04-21T18:18:20.933Z,30.39
2019-04-21T18:21:41.335Z,30.58
2019-04-21T18:30:33.976Z,30.06
2019-04-21T18:39:34.025Z,31.10
2019-04-21T18:42:45.445Z,31.33
2019-04-21T18:48:41.181Z,31.33
2019-04-21T18:51:40.295Z,31.63
2019-04-21T18:57:00.961Z,31.97
2019-04-21T18:59:39.837Z,32.40
2019-04-21T19:02:17.514Z,31.53
2019-04-21T19:04:50.090Z,31.73
2019-04-21T19:07:45.562Z,35.18
2019-04-21T19:13:27.920Z,34.46
2019-04-21T19:18:50.598Z,33.80
2019-04-21T19:21:24.585Z,34.07
2019-04-21T19:24:10.829Z,34.33
2019-04-21T19:26:49.706Z,35.32
2019-04-21T19:29:24.355Z,34.53
2019-04-21T19:32:45.255Z,34.49
2019-04-21T19:34:57.434Z,35.95
2019-04-21T19:37:34.026Z,36.30
2019-04-21T19:43:23.141Z,35.91
2019-04-21T19:46:14.106Z,36.45
2019-04-21T19:49:05.499Z,37.52
2019-04-21T19:51:32.760Z,36.99
2019-04-21T19:54:01.347Z,36.50
2019-04-21T19:56:43.014Z,35.18
2019-04-21T19:59:23.615Z,36.04
2019-04-21T20:02:02.734Z,34.80
2019-04-21T20:04:43.960Z,35.16
2019-04-21T20:07:27.531Z,34.98
2019-04-21T20:10:15.474Z,34.73
2019-04-21T20:12:47.440Z,34.94
2019-04-21T20:16:01.513Z,34.36
2019-04-21T20:18:29.550Z,36.33
2019-04-21T20:20:58.059Z,36.80
2019-04-21T20:23:40.623Z,37.54
2019-04-21T20:26:15.538Z,38.13
2019-04-21T20:29:00.065Z,37.60
2019-04-21T20:31:40.934Z,36.54
2019-04-21T20:34:26.905Z,39.05
2019-04-21T20:37:02.022Z,39.78
2019-04-21T20:39:23.201Z,39.22
2019-04-21T20:42:09.726Z,40.11
2019-04-21T20:47:54.250Z,41.63
2019-04-21T20:50:37.941Z,41.56
2019-04-21T20:53:25.144Z,42.50
2019-04-21T20:55:57.476Z,43.00
2019-04-21T20:58:37.603Z,44.11
2019-04-21T21:03:57.934Z,44.00
2019-04-21T21:06:32.948Z,45.40
2019-04-21T21:09:09.111Z,45.16
2019-04-21T21:12:12.874Z,46.14
2019-04-21T21:14:40.650Z,47.71
2019-04-21T21:17:25.400Z,47.99
2019-04-21T21:20:00.328Z,48.72
2019-04-21T21:22:29.396Z,48.28
2019-04-21T21:25:11.319Z,48.32
2019-04-21T21:27:41.829Z,49.94
2019-04-21T21:31:04.164Z,49.52
2019-04-21T21:33:50.753Z,50.67
2019-04-21T21:36:31.849Z,50.84
2019-04-21T21:39:01.267Z,50.41
2019-04-21T21:41:31.786Z,51.19
2019-04-21T21:44:23.108Z,49.54
2019-04-21T21:47:19.161Z,49.63
2019-04-21T21:49:54.084Z,49.63
2019-04-21T21:52:30.050Z,49.72
2019-04-21T21:54:52.227Z,51.23
2019-04-21T21:57:22.854Z,51.23
2019-04-21T22:03:46.262Z,52.96
2019-04-21T22:06:18.255Z,52.96
2019-04-21T22:08:48.314Z,53.27
2019-04-21T22:11:24.279Z,51.87
2019-04-21T22:14:01.920Z,52.00
2019-04-21T22:17:16.141Z,52.39
2019-04-21T22:20:08.119Z,53.16
2019-04-21T22:22:36.575Z,53.16
2019-04-21T22:25:07.893Z,53.06
2019-04-21T22:27:54.185Z,54.32
2019-04-21T22:30:38.472Z,52.63
2019-04-21T22:33:14.521Z,52.63
2019-04-21T22:36:09.947Z,53.72
2019-04-21T22:38:59.556Z,53.62
2019-04-21T22:41:24.456Z,53.62
2019-04-21T22:43:53.316Z,55.23
2019-04-21T22:46:28.582Z,55.23
2019-04-21T22:49:08.935Z,54.64
2019-04-21T22:51:53.808Z,54.35
2019-04-21T22:54:39.681Z,55.28
2019-04-21T22:57:12.877Z,55.28
2019-04-21T22:59:45.337Z,56.72
2019-04-21T23:05:43.038Z,56.81
2019-04-21T23:08:17.153Z,56.20
2019-04-21T23:11:17.845Z,57.87
2019-04-21T23:14:02.111Z,57.87
2019-04-21T23:16:53.971Z,55.73
2019-04-21T23:19:38.911Z,55.73
2019-04-21T23:25:42.345Z,57.30
2019-04-21T23:28:52.709Z,58.62
2019-04-21T23:31:18.670Z,58.62
2019-04-21T23:33:40.462Z,58.80
2019-04-21T23:36:27.845Z,58.91
2019-04-21T23:38:56.698Z,58.91
2019-04-21T23:41:52.861Z,60.68
2019-04-21T23:44:26.018Z,60.68
2019-04-21T23:47:00.796Z,59.67
2019-04-21T23:49:53.125Z,59.93
2019-04-21T23:52:25.690Z,59.39
2019-04-21T23:54:55.610Z,59.29
2019-04-21T23:57:48.391Z,59.29
